Sitka Rocky Gutierrez Airport
PASI : now visible

Airfield :











YOU CAN JOIN US ON...

 
LOGIN :

Register | Disclaimer

   EN    FR    IT 

 









Legend :    VFR   Marginal VFR   IFR   Intensive IFR   Very Intensive IFR
Visi :
Ceiling :
>= 8 km
>= 3000ft
5 to 8 km
1000 to 3000 ft
1500m to 5 km
500 to 1000 ft
800 to 1500m
200 to 500 ft
< 800m
< 200 ft
Symbols :   Thunderstorms  Fog  Heavy snow  Heavy precipitations  Wind > 20 kt






- Airport Elevation : 21 ft
- IATA code : SIT


PASI - Sitka Rocky Gutierrez

CURRENT METAR :
  • 090653Z 33010KT 10SM CLR 14/11 A3023 RMK AO2 SLP236 T01440111

EXPIRED METARs :
  • 090553Z 32010KT 10SM FEW100 14/11 A3023 RMK AO2 SLP237 T01440106 10183 20144 56003
  • 090453Z 32012KT 10SM FEW039 15/11 A3023 RMK AO2 SLP238 T01500106

TAF PASI
Valid from the 09 at 06:00 until the 10 at 06:00 UTC


090523Z 0906/1006 32012KT P6SM SCT035
FM091100 VRB04KT P6SM BKN020
FM092000 28009KT P6SM BKN050
PAZA FIR / North America



MET'MAP, your aeronautical weather chart ! - Copyright ORBIFLY December 2007 - Disclaimer

ORBIFLY MET'MAP TEAM :

Programming & Development : Alexandra Zaïnal
Original concept : Baudouin d'Aumeries
Technical & hardware support : Manuel Goepfert
Assistance : Marc-Olivier Méhu




SOURCES & CREDITS :

   NOAA       Earth
Advisory